sensor_id;sensor_type;location;lat;lon;timestamp;P1;P4;P2;P0;N10;N4;N25;N1;N05;TS
82394;SPS30;72031;51.786;4.662;2024-02-23T00:00:28;4.21;3.77;2.87;1.71;13.74;13.69;13.47;12.41;9.02;0.82
82394;SPS30;72031;51.786;4.662;2024-02-23T00:02:53;4.70;4.21;3.22;1.93;15.48;15.42;15.19;14.01;10.22;0.82
82394;SPS30;72031;51.786;4.662;2024-02-23T00:05:21;4.81;4.32;3.32;2.02;16.21;16.15;15.92;14.73;10.83;0.82
82394;SPS30;72031;51.786;4.662;2024-02-23T00:07:47;4.17;3.75;2.89;1.76;14.12;14.07;13.87;12.85;9.46;0.82
82394;SPS30;72031;51.786;4.662;2024-02-23T00:10:12;4.13;3.71;2.83;1.69;13.55;13.50;13.29;12.25;8.92;0.82
82394;SPS30;72031;51.786;4.662;2024-02-23T00:12:38;4.88;4.39;3.37;2.06;16.47;16.41;16.17;14.97;11.01;0.80
82394;SPS30;72031;51.786;4.662;2024-02-23T00:15:03;4.61;4.15;3.19;1.94;15.57;15.51;15.29;14.15;10.41;0.81
82394;SPS30;72031;51.786;4.662;2024-02-23T00:17:29;5.21;4.68;3.58;2.16;17.31;17.25;16.99;15.69;11.47;0.82
82394;SPS30;72031;51.786;4.662;2024-02-23T00:19:55;4.95;4.43;3.36;1.98;15.88;15.82;15.57;14.31;10.33;0.86
82394;SPS30;72031;51.786;4.662;2024-02-23T00:22:20;4.36;3.88;2.89;1.63;13.05;13.00;12.76;11.60;8.14;0.89
82394;SPS30;72031;51.786;4.662;2024-02-23T00:24:46;4.26;3.78;2.80;1.55;12.43;12.37;12.14;10.99;7.63;0.90
82394;SPS30;72031;51.786;4.662;2024-02-23T00:27:12;4.96;4.39;3.21;1.71;13.75;13.69;13.41;12.02;8.15;0.90
82394;SPS30;72031;51.786;4.662;2024-02-23T00:29:38;4.76;4.20;3.05;1.59;12.74;12.67;12.40;11.04;7.35;0.90
82394;SPS30;72031;51.786;4.662;2024-02-23T00:32:03;5.00;4.43;3.25;1.74;13.99;13.93;13.65;12.26;8.35;0.89
82394;SPS30;72031;51.786;4.662;2024-02-23T00:34:29;4.08;3.62;2.67;1.47;11.78;11.73;11.51;10.39;7.19;0.87
82394;SPS30;72031;51.786;4.662;2024-02-23T00:36:56;4.53;4.03;3.01;1.70;13.60;13.54;13.30;12.09;8.50;0.85
82394;SPS30;72031;51.786;4.662;2024-02-23T00:39:22;4.47;3.97;2.95;1.64;13.12;13.07;12.82;11.61;8.09;0.87
82394;SPS30;72031;51.786;4.662;2024-02-23T00:41:48;4.50;4.00;2.97;1.66;13.34;13.28;13.04;11.83;8.28;0.86
82394;SPS30;72031;51.786;4.662;2024-02-23T00:44:14;4.68;4.16;3.09;1.72;13.78;13.72;13.47;12.21;8.51;0.88
82394;SPS30;72031;51.786;4.662;2024-02-23T00:46:39;4.38;3.87;2.83;1.50;12.03;11.97;11.72;10.49;7.08;0.90
82394;SPS30;72031;51.786;4.662;2024-02-23T00:49:05;4.76;4.21;3.09;1.67;13.37;13.30;13.04;11.72;7.99;0.87
82394;SPS30;72031;51.786;4.662;2024-02-23T00:51:31;5.27;4.67;3.43;1.86;14.92;14.85;14.56;13.10;8.98;0.87
82394;SPS30;72031;51.786;4.662;2024-02-23T00:53:57;4.50;4.02;3.04;1.78;14.29;14.23;14.00;12.85;9.24;0.81
82394;SPS30;72031;51.786;4.662;2024-02-23T00:56:22;4.36;3.93;3.03;1.87;14.98;14.93;14.72;13.66;10.11;0.78
82394;SPS30;72031;51.786;4.662;2024-02-23T00:58:48;4.39;3.93;3.00;1.79;14.34;14.29;14.07;12.96;9.43;0.80
82394;SPS30;72031;51.786;4.662;2024-02-23T01:01:13;4.28;3.83;2.91;1.71;13.73;13.68;13.46;12.37;8.93;0.80
82394;SPS30;72031;51.786;4.662;2024-02-23T01:03:39;3.55;3.21;2.50;1.56;12.52;12.48;12.31;11.46;8.55;0.75
82394;SPS30;72031;51.786;4.662;2024-02-23T01:06:04;3.77;3.42;2.71;1.77;14.17;14.12;13.96;13.11;9.97;0.74
82394;SPS30;72031;51.786;4.662;2024-02-23T01:08:31;3.74;3.39;2.66;1.71;13.67;13.63;13.46;12.60;9.51;0.76
82394;SPS30;72031;51.786;4.662;2024-02-23T01:10:56;4.22;3.81;2.95;1.83;14.62;14.57;14.37;13.35;9.90;0.79
82394;SPS30;72031;51.786;4.662;2024-02-23T01:13:22;4.18;3.76;2.90;1.77;14.20;14.15;13.94;12.92;9.52;0.79
82394;SPS30;72031;51.786;4.662;2024-02-23T01:15:47;3.84;3.48;2.73;1.74;13.95;13.91;13.73;12.84;9.67;0.75
82394;SPS30;72031;51.786;4.662;2024-02-23T01:18:13;3.43;3.11;2.45;1.57;12.58;12.55;12.39;11.60;8.76;0.75
82394;SPS30;72031;51.786;4.662;2024-02-23T01:20:39;3.19;2.90;2.31;1.51;12.10;12.07;11.93;11.21;8.55;0.74
82394;SPS30;72031;51.786;4.662;2024-02-23T01:23:04;3.63;3.30;2.62;1.72;13.76;13.72;13.56;12.75;9.73;0.76
82394;SPS30;72031;51.786;4.662;2024-02-23T01:25:30;3.53;3.22;2.57;1.70;13.61;13.58;13.42;12.64;9.69;0.74
82394;SPS30;72031;51.786;4.662;2024-02-23T01:27:57;3.77;3.42;2.70;1.74;13.94;13.90;13.73;12.87;9.74;0.75
82394;SPS30;72031;51.786;4.662;2024-02-23T01:30:22;3.80;3.43;2.66;1.65;13.23;13.19;13.00;12.09;8.98;0.77
82394;SPS30;72031;51.786;4.662;2024-02-23T01:32:48;3.72;3.36;2.62;1.65;13.25;13.21;13.03;12.15;9.09;0.78
82394;SPS30;72031;51.786;4.662;2024-02-23T01:35:15;3.62;3.27;2.55;1.60;12.81;12.76;12.59;11.73;8.77;0.79
82394;SPS30;72031;51.786;4.662;2024-02-23T01:37:40;4.45;3.99;3.06;1.85;14.79;14.74;14.51;13.41;9.81;0.82
82394;SPS30;72031;51.786;4.662;2024-02-23T01:40:06;4.76;4.27;3.27;1.97;15.79;15.73;15.49;14.31;10.46;0.80
82394;SPS30;72031;51.786;4.662;2024-02-23T01:42:32;5.02;4.49;3.41;2.00;16.04;15.98;15.73;14.44;10.41;0.81
82394;SPS30;72031;51.786;4.662;2024-02-23T01:45:00;4.39;3.94;3.03;1.84;14.73;14.68;14.46;13.37;9.81;0.79
82394;SPS30;72031;51.786;4.662;2024-02-23T01:47:28;4.39;3.94;3.04;1.85;14.82;14.77;14.55;13.47;9.91;0.79
82394;SPS30;72031;51.786;4.662;2024-02-23T01:49:55;3.98;3.58;2.75;1.67;13.39;13.34;13.14;12.16;8.93;0.79
82394;SPS30;72031;51.786;4.662;2024-02-23T01:52:24;4.34;3.91;3.01;1.84;14.73;14.68;14.47;13.40;9.87;0.80
82394;SPS30;72031;51.786;4.662;2024-02-23T01:54:50;4.79;4.31;3.33;2.05;16.42;16.36;16.13;14.97;11.07;0.80
82394;SPS30;72031;51.786;4.662;2024-02-23T01:57:17;4.46;4.02;3.14;1.97;15.77;15.72;15.51;14.45;10.80;0.80
82394;SPS30;72031;51.786;4.662;2024-02-23T01:59:43;4.30;3.87;2.98;1.83;14.67;14.62;14.41;13.36;9.86;0.82
82394;SPS30;72031;51.786;4.662;2024-02-23T02:02:08;4.37;3.94;3.05;1.89;15.15;15.10;14.89;13.84;10.26;0.82
82394;SPS30;72031;51.786;4.662;2024-02-23T02:04:34;4.83;4.35;3.36;2.08;16.65;16.60;16.36;15.19;11.25;0.82
82394;SPS30;72031;51.786;4.662;2024-02-23T02:06:59;5.18;4.68;3.64;2.28;18.29;18.23;17.99;16.75;12.50;0.79
82394;SPS30;72031;51.786;4.662;2024-02-23T02:09:26;5.05;4.58;3.60;2.31;18.50;18.45;18.21;17.05;12.87;0.77
82394;SPS30;72031;51.786;4.662;2024-02-23T02:11:52;5.20;4.69;3.64;2.27;18.15;18.09;17.84;16.59;12.33;0.81
82394;SPS30;72031;51.786;4.662;2024-02-23T02:14:17;4.37;3.95;3.09;1.95;15.64;15.59;15.38;14.36;10.77;0.80
82394;SPS30;72031;51.786;4.662;2024-02-23T02:16:43;4.92;4.47;3.56;2.33;18.69;18.63;18.42;17.32;13.22;0.78
82394;SPS30;72031;51.786;4.662;2024-02-23T02:19:09;4.95;4.50;3.58;2.36;18.87;18.81;18.59;17.49;13.37;0.77
82394;SPS30;72031;51.786;4.662;2024-02-23T02:21:35;4.27;3.90;3.13;2.10;16.83;16.79;16.60;15.69;12.09;0.75
82394;SPS30;72031;51.786;4.662;2024-02-23T02:24:02;3.72;3.41;2.77;1.90;15.20;15.16;15.00;14.23;11.07;0.74
82394;SPS30;72031;51.786;4.662;2024-02-23T02:26:29;4.15;3.80;3.08;2.11;16.91;16.86;16.69;15.83;12.32;0.74
82394;SPS30;72031;51.786;4.662;2024-02-23T02:28:57;3.99;3.65;2.94;1.99;15.96;15.92;15.75;14.91;11.54;0.73
82394;SPS30;72031;51.786;4.662;2024-02-23T02:31:23;4.12;3.75;3.01;2.01;16.09;16.05;15.87;14.98;11.52;0.75
82394;SPS30;72031;51.786;4.662;2024-02-23T02:33:48;4.18;3.82;3.08;2.08;16.67;16.62;16.45;15.56;12.04;0.74
82394;SPS30;72031;51.786;4.662;2024-02-23T02:36:14;4.21;3.84;3.06;2.03;16.23;16.19;16.00;15.08;11.55;0.75
82394;SPS30;72031;51.786;4.662;2024-02-23T02:38:39;3.91;3.57;2.88;1.95;15.57;15.53;15.37;14.53;11.23;0.74
82394;SPS30;72031;51.786;4.662;2024-02-23T02:41:05;3.53;3.25;2.67;1.88;15.06;15.02;14.88;14.19;11.16;0.72
82394;SPS30;72031;51.786;4.662;2024-02-23T02:43:31;3.34;3.08;2.54;1.79;14.35;14.32;14.19;13.54;10.67;0.71
82394;SPS30;72031;51.786;4.662;2024-02-23T02:45:56;3.73;3.41;2.75;1.86;14.87;14.84;14.68;13.89;10.74;0.73
82394;SPS30;72031;51.786;4.662;2024-02-23T02:48:22;3.60;3.30;2.69;1.86;14.89;14.85;14.71;13.97;10.90;0.71
82394;SPS30;72031;51.786;4.662;2024-02-23T02:50:48;3.62;3.34;2.77;1.97;15.78;15.75;15.61;14.91;11.79;0.69
82394;SPS30;72031;51.786;4.662;2024-02-23T02:53:15;3.07;2.82;2.29;1.57;12.59;12.56;12.43;11.80;9.19;0.71
82394;SPS30;72031;51.786;4.662;2024-02-23T02:55:44;4.27;3.87;3.06;1.99;15.92;15.87;15.68;14.71;11.16;0.74
82394;SPS30;72031;51.786;4.662;2024-02-23T02:58:12;3.80;3.46;2.75;1.82;14.54;14.50;14.34;13.50;10.32;0.72
82394;SPS30;72031;51.786;4.662;2024-02-23T03:00:39;3.81;3.47;2.77;1.84;14.74;14.70;14.54;13.70;10.51;0.72
82394;SPS30;72031;51.786;4.662;2024-02-23T03:03:05;3.92;3.56;2.81;1.82;14.56;14.51;14.34;13.44;10.19;0.74
82394;SPS30;72031;51.786;4.662;2024-02-23T03:05:31;3.95;3.58;2.83;1.84;14.70;14.65;14.48;13.58;10.31;0.73
82394;SPS30;72031;51.786;4.662;2024-02-23T03:07:56;3.75;3.42;2.75;1.84;14.73;14.69;14.53;13.72;10.57;0.71
82394;SPS30;72031;51.786;4.662;2024-02-23T03:10:22;3.51;3.21;2.59;1.75;13.97;13.94;13.79;13.04;10.08;0.72
82394;SPS30;72031;51.786;4.662;2024-02-23T03:12:47;3.78;3.41;2.66;1.67;13.41;13.37;13.19;12.29;9.19;0.78
82394;SPS30;72031;51.786;4.662;2024-02-23T03:15:13;4.06;3.65;2.83;1.74;13.96;13.92;13.72;12.74;9.43;0.78
82394;SPS30;72031;51.786;4.662;2024-02-23T03:17:38;3.91;3.52;2.74;1.70;13.64;13.60;13.41;12.47;9.28;0.78
82394;SPS30;72031;51.786;4.662;2024-02-23T03:20:04;4.32;3.90;3.02;1.88;15.04;14.99;14.79;13.75;10.21;0.79
82394;SPS30;72031;51.786;4.662;2024-02-23T03:22:33;3.73;3.36;2.61;1.62;12.96;12.91;12.73;11.83;8.79;0.80
82394;SPS30;72031;51.786;4.662;2024-02-23T03:24:59;4.95;4.43;3.34;1.94;15.54;15.47;15.22;13.93;9.97;0.84
82394;SPS30;72031;51.786;4.662;2024-02-23T03:27:28;4.50;4.00;2.98;1.67;13.39;13.33;13.09;11.88;8.32;0.86
82394;SPS30;72031;51.786;4.662;2024-02-23T03:29:57;4.90;4.37;3.28;1.88;15.04;14.98;14.72;13.43;9.53;0.85
82394;SPS30;72031;51.786;4.662;2024-02-23T03:32:22;4.87;4.37;3.35;2.02;16.16;16.10;15.86;14.64;10.70;0.83
82394;SPS30;72031;51.786;4.662;2024-02-23T03:34:47;4.80;4.29;3.25;1.90;15.24;15.18;14.94;13.70;9.86;0.84
82394;SPS30;72031;51.786;4.662;2024-02-23T03:37:13;4.65;4.16;3.15;1.85;14.80;14.74;14.50;13.31;9.58;0.84
82394;SPS30;72031;51.786;4.662;2024-02-23T03:39:39;4.51;4.05;3.10;1.86;14.94;14.88;14.66;13.53;9.88;0.81
82394;SPS30;72031;51.786;4.662;2024-02-23T03:42:04;4.65;4.18;3.23;1.98;15.84;15.78;15.56;14.42;10.64;0.79
82394;SPS30;72031;51.786;4.662;2024-02-23T03:44:30;4.13;3.72;2.88;1.78;14.24;14.19;13.99;12.99;9.62;0.78
82394;SPS30;72031;51.786;4.662;2024-02-23T03:46:56;4.76;4.29;3.33;2.06;16.54;16.48;16.25;15.11;11.22;0.78
82394;SPS30;72031;51.786;4.662;2024-02-23T03:49:22;4.89;4.40;3.38;2.06;16.50;16.44;16.20;14.99;11.02;0.81
82394;SPS30;72031;51.786;4.662;2024-02-23T03:51:47;4.52;4.06;3.12;1.90;15.22;15.16;14.94;13.83;10.16;0.81
82394;SPS30;72031;51.786;4.662;2024-02-23T03:54:13;4.27;3.84;2.96;1.80;14.45;14.40;14.19;13.14;9.67;0.81
82394;SPS30;72031;51.786;4.662;2024-02-23T03:56:39;4.81;4.33;3.36;2.08;16.63;16.57;16.34;15.17;11.25;0.80
82394;SPS30;72031;51.786;4.662;2024-02-23T03:59:06;4.88;4.39;3.39;2.08;16.69;16.63;16.40;15.21;11.24;0.80
82394;SPS30;72031;51.786;4.662;2024-02-23T04:01:34;4.61;4.15;3.21;1.98;15.87;15.82;15.59;14.48;10.72;0.79
82394;SPS30;72031;51.786;4.662;2024-02-23T04:04:01;4.56;4.13;3.26;2.11;16.92;16.87;16.66;15.62;11.84;0.77
82394;SPS30;72031;51.786;4.662;2024-02-23T04:06:26;4.40;3.99;3.14;2.02;16.19;16.14;15.94;14.93;11.29;0.78
82394;SPS30;72031;51.786;4.662;2024-02-23T04:08:52;4.21;3.81;2.98;1.90;15.20;15.15;14.95;13.97;10.50;0.77
82394;SPS30;72031;51.786;4.662;2024-02-23T04:11:17;4.70;4.28;3.41;2.25;17.98;17.93;17.72;16.68;12.75;0.75
82394;SPS30;72031;51.786;4.662;2024-02-23T04:13:43;3.85;3.50;2.79;1.85;14.79;14.75;14.58;13.73;10.51;0.74
82394;SPS30;72031;51.786;4.662;2024-02-23T04:16:10;3.71;3.39;2.71;1.81;14.51;14.47;14.31;13.51;10.39;0.73
82394;SPS30;72031;51.786;4.662;2024-02-23T04:18:35;3.90;3.57;2.88;1.95;15.60;15.56;15.39;14.57;11.27;0.72
82394;SPS30;72031;51.786;4.662;2024-02-23T04:21:00;4.29;3.92;3.17;2.15;17.20;17.16;16.98;16.07;12.45;0.72
82394;SPS30;72031;51.786;4.662;2024-02-23T04:23:26;4.51;4.11;3.29;2.19;17.56;17.51;17.31;16.33;12.54;0.74
82394;SPS30;72031;51.786;4.662;2024-02-23T04:25:51;4.43;4.05;3.28;2.23;17.87;17.83;17.64;16.71;12.96;0.72
82394;SPS30;72031;51.786;4.662;2024-02-23T04:28:17;4.04;3.69;2.99;2.03;16.22;16.18;16.01;15.16;11.74;0.73
82394;SPS30;72031;51.786;4.662;2024-02-23T04:30:42;4.13;3.79;3.08;2.12;16.96;16.91;16.74;15.89;12.38;0.71
82394;SPS30;72031;51.786;4.662;2024-02-23T04:33:08;3.64;3.36;2.78;1.98;15.82;15.78;15.64;14.94;11.80;0.67
82394;SPS30;72031;51.786;4.662;2024-02-23T04:35:33;3.96;3.69;3.14;2.35;18.80;18.77;18.64;17.96;14.47;0.62
82394;SPS30;72031;51.786;4.662;2024-02-23T04:37:59;3.41;3.21;2.79;2.17;17.36;17.34;17.24;16.72;13.64;0.60
82394;SPS30;72031;51.786;4.662;2024-02-23T04:40:24;3.37;3.18;2.80;2.22;17.73;17.71;17.61;17.13;14.06;0.57
82394;SPS30;72031;51.786;4.662;2024-02-23T04:42:50;3.53;3.34;2.95;2.35;18.79;18.77;18.67;18.18;14.96;0.60
82394;SPS30;72031;51.786;4.662;2024-02-23T04:45:15;3.86;3.68;3.32;2.73;21.85;21.82;21.73;21.27;17.67;0.59
82394;SPS30;72031;51.786;4.662;2024-02-23T04:47:41;3.63;3.48;3.17;2.65;21.21;21.19;21.12;20.71;17.29;0.57
82394;SPS30;72031;51.786;4.662;2024-02-23T04:50:06;4.09;3.96;3.69;3.19;25.48;25.46;25.39;25.02;21.09;0.54
82394;SPS30;72031;51.786;4.662;2024-02-23T04:52:32;3.86;3.77;3.58;3.18;25.38;25.37;25.32;25.05;21.26;0.50
82394;SPS30;72031;51.786;4.662;2024-02-23T04:54:57;3.94;3.92;3.87;3.61;28.83;28.82;28.80;28.69;24.68;0.46
82394;SPS30;72031;51.786;4.662;2024-02-23T04:57:23;4.20;4.18;4.14;3.87;30.89;30.88;30.87;30.75;26.46;0.47
82394;SPS30;72031;51.786;4.662;2024-02-23T04:59:48;3.83;3.80;3.74;3.46;27.66;27.65;27.63;27.50;23.62;0.47
82394;SPS30;72031;51.786;4.662;2024-02-23T05:02:13;3.88;3.87;3.85;3.61;28.86;28.85;28.84;28.75;24.78;0.47
82394;SPS30;72031;51.786;4.662;2024-02-23T05:04:39;3.82;3.78;3.69;3.39;27.09;27.08;27.05;26.89;23.05;0.48
82394;SPS30;72031;51.786;4.662;2024-02-23T05:07:05;3.88;3.85;3.77;3.48;27.77;27.76;27.74;27.59;23.67;0.47
82394;SPS30;72031;51.786;4.662;2024-02-23T05:09:30;3.91;3.88;3.81;3.53;28.16;28.15;28.12;27.98;24.02;0.47
82394;SPS30;72031;51.786;4.662;2024-02-23T05:11:56;4.18;4.12;4.02;3.68;29.38;29.37;29.34;29.15;24.96;0.49
82394;SPS30;72031;51.786;4.662;2024-02-23T05:14:22;3.58;3.53;3.43;3.14;25.06;25.05;25.02;24.85;21.27;0.48
82394;SPS30;72031;51.786;4.662;2024-02-23T05:16:48;3.81;3.77;3.67;3.37;26.91;26.90;26.87;26.70;22.87;0.47
82394;SPS30;72031;51.786;4.662;2024-02-23T05:19:13;3.71;3.69;3.64;3.39;27.11;27.10;27.08;26.97;23.19;0.47
82394;SPS30;72031;51.786;4.662;2024-02-23T05:21:39;3.92;3.85;3.70;3.34;26.67;26.66;26.62;26.39;22.51;0.49
82394;SPS30;72031;51.786;4.662;2024-02-23T05:24:04;3.77;3.69;3.51;3.12;24.92;24.91;24.86;24.60;20.90;0.50
82394;SPS30;72031;51.786;4.662;2024-02-23T05:26:31;4.00;3.92;3.76;3.38;26.97;26.95;26.91;26.67;22.72;0.48
82394;SPS30;72031;51.786;4.662;2024-02-23T05:28:56;3.95;3.91;3.84;3.55;28.38;28.37;28.35;28.21;24.21;0.48
82394;SPS30;72031;51.786;4.662;2024-02-23T05:31:24;4.10;4.05;3.95;3.63;28.97;28.96;28.93;28.76;24.64;0.49
82394;SPS30;72031;51.786;4.662;2024-02-23T05:34:12;4.75;4.69;4.57;4.19;33.44;33.43;33.39;33.18;28.41;0.49
82394;SPS30;72031;51.786;4.662;2024-02-23T05:36:37;4.90;4.86;4.77;4.41;35.20;35.19;35.16;34.98;30.03;0.47
82394;SPS30;72031;51.786;4.662;2024-02-23T05:39:03;4.82;4.82;4.82;4.55;36.33;36.33;36.32;36.23;31.26;0.46
82394;SPS30;72031;51.786;4.662;2024-02-23T05:41:28;4.79;4.79;4.79;4.53;36.18;36.18;36.17;36.09;31.15;0.46
82394;SPS30;72031;51.786;4.662;2024-02-23T05:43:54;4.92;4.91;4.89;4.60;36.70;36.69;36.68;36.57;31.52;0.47
82394;SPS30;72031;51.786;4.662;2024-02-23T05:46:19;4.59;4.56;4.51;4.20;33.54;33.53;33.50;33.37;28.70;0.49
82394;SPS30;72031;51.786;4.662;2024-02-23T05:48:46;4.16;4.14;4.10;3.84;30.66;30.65;30.63;30.53;26.28;0.47
82394;SPS30;72031;51.786;4.662;2024-02-23T05:51:12;4.39;4.37;4.32;4.03;32.18;32.18;32.16;32.03;27.55;0.48
82394;SPS30;72031;51.786;4.662;2024-02-23T05:53:37;4.07;4.04;3.98;3.70;29.52;29.51;29.49;29.36;25.22;0.49
82394;SPS30;72031;51.786;4.662;2024-02-23T05:56:03;4.26;4.22;4.15;3.84;30.64;30.63;30.60;30.45;26.14;0.48
82394;SPS30;72031;51.786;4.662;2024-02-23T05:58:28;4.01;3.99;3.95;3.68;29.38;29.38;29.36;29.24;25.15;0.48
82394;SPS30;72031;51.786;4.662;2024-02-23T06:00:54;3.81;3.79;3.75;3.49;27.90;27.89;27.87;27.76;23.87;0.48
82394;SPS30;72031;51.786;4.662;2024-02-23T06:03:19;3.83;3.79;3.71;3.43;27.36;27.35;27.32;27.18;23.31;0.49
82394;SPS30;72031;51.786;4.662;2024-02-23T06:05:45;3.70;3.67;3.60;3.32;26.53;26.52;26.49;26.36;22.61;0.50
82394;SPS30;72031;51.786;4.662;2024-02-23T06:08:11;3.66;3.62;3.53;3.24;25.89;25.88;25.86;25.70;22.02;0.50
82394;SPS30;72031;51.786;4.662;2024-02-23T06:10:36;4.06;3.99;3.83;3.45;27.57;27.56;27.51;27.28;23.25;0.52
82394;SPS30;72031;51.786;4.662;2024-02-23T06:13:03;3.89;3.82;3.68;3.33;26.59;26.57;26.53;26.32;22.46;0.51
82394;SPS30;72031;51.786;4.662;2024-02-23T06:15:28;4.03;3.95;3.79;3.41;27.21;27.19;27.15;26.90;22.92;0.53
82394;SPS30;72031;51.786;4.662;2024-02-23T06:17:54;4.38;4.30;4.14;3.74;29.89;29.88;29.83;29.59;25.24;0.52
82394;SPS30;72031;51.786;4.662;2024-02-23T06:20:19;3.96;3.91;3.82;3.51;28.03;28.02;27.99;27.82;23.84;0.49
82394;SPS30;72031;51.786;4.662;2024-02-23T06:22:45;3.66;3.63;3.56;3.29;26.31;26.30;26.28;26.14;22.44;0.48
82394;SPS30;72031;51.786;4.662;2024-02-23T06:25:10;4.16;4.13;4.07;3.79;30.27;30.26;30.24;30.12;25.89;0.47
82394;SPS30;72031;51.786;4.662;2024-02-23T06:27:36;3.89;3.88;3.87;3.65;29.18;29.17;29.16;29.09;25.09;0.46
82394;SPS30;72031;51.786;4.662;2024-02-23T06:30:02;4.26;4.21;4.11;3.78;30.20;30.19;30.16;29.98;25.70;0.49
82394;SPS30;72031;51.786;4.662;2024-02-23T06:32:28;4.69;4.61;4.44;4.02;32.09;32.07;32.03;31.77;27.11;0.51
82394;SPS30;72031;51.786;4.662;2024-02-23T06:34:54;4.16;4.10;3.98;3.63;28.98;28.97;28.93;28.73;24.56;0.49
82394;SPS30;72031;51.786;4.662;2024-02-23T06:37:20;4.10;4.05;3.95;3.62;28.89;28.88;28.85;28.67;24.56;0.49
82394;SPS30;72031;51.786;4.662;2024-02-23T06:39:45;3.75;3.70;3.61;3.31;26.45;26.44;26.42;26.25;22.49;0.49
82394;SPS30;72031;51.786;4.662;2024-02-23T06:42:15;3.73;3.68;3.59;3.29;26.27;26.26;26.23;26.06;22.32;0.48
82394;SPS30;72031;51.786;4.662;2024-02-23T06:44:40;4.01;3.95;3.82;3.47;27.68;27.67;27.63;27.42;23.42;0.48
82394;SPS30;72031;51.786;4.662;2024-02-23T06:47:06;3.40;3.37;3.32;3.08;24.63;24.62;24.61;24.50;21.05;0.47
82394;SPS30;72031;51.786;4.662;2024-02-23T06:49:32;3.43;3.43;3.43;3.24;25.85;25.84;25.83;25.78;22.24;0.46
82394;SPS30;72031;51.786;4.662;2024-02-23T06:51:57;3.27;3.27;3.27;3.09;24.68;24.68;24.67;24.62;21.25;0.45
82394;SPS30;72031;51.786;4.662;2024-02-23T06:54:22;3.60;3.58;3.52;3.27;26.12;26.12;26.10;25.98;22.32;0.46
82394;SPS30;72031;51.786;4.662;2024-02-23T06:56:48;3.75;3.73;3.68;3.43;27.36;27.35;27.33;27.22;23.40;0.47
82394;SPS30;72031;51.786;4.662;2024-02-23T06:59:25;3.72;3.68;3.61;3.34;26.66;26.65;26.63;26.49;22.73;0.48
82394;SPS30;72031;51.786;4.662;2024-02-23T07:01:51;3.27;3.21;3.07;2.75;21.98;21.96;21.93;21.72;18.49;0.50
82394;SPS30;72031;51.786;4.662;2024-02-23T07:04:26;3.46;3.38;3.21;2.84;22.66;22.64;22.60;22.35;18.96;0.50
82394;SPS30;72031;51.786;4.662;2024-02-23T07:06:52;3.49;3.39;3.19;2.79;22.26;22.24;22.19;21.91;18.52;0.51
82394;SPS30;72031;51.786;4.662;2024-02-23T07:09:17;3.87;3.72;3.40;2.86;22.85;22.83;22.75;22.33;18.67;0.53
82394;SPS30;72031;51.786;4.662;2024-02-23T07:11:43;3.80;3.64;3.32;2.79;22.26;22.24;22.16;21.74;18.16;0.55
82394;SPS30;72031;51.786;4.662;2024-02-23T07:14:09;3.40;3.27;3.00;2.54;20.28;20.26;20.20;19.84;16.62;0.54
82394;SPS30;72031;51.786;4.662;2024-02-23T07:16:45;3.59;3.45;3.18;2.70;21.57;21.55;21.48;21.12;17.71;0.55
82394;SPS30;72031;51.786;4.662;2024-02-23T07:19:10;3.71;3.57;3.28;2.78;22.19;22.17;22.10;21.72;18.20;0.55
82394;SPS30;72031;51.786;4.662;2024-02-23T07:21:37;3.68;3.52;3.20;2.66;21.26;21.23;21.15;20.73;17.28;0.55
82394;SPS30;72031;51.786;4.662;2024-02-23T07:24:03;3.94;3.77;3.42;2.85;22.74;22.71;22.63;22.18;18.48;0.57
82394;SPS30;72031;51.786;4.662;2024-02-23T07:26:31;3.38;3.23;2.91;2.40;19.21;19.19;19.11;18.71;15.55;0.59
82394;SPS30;72031;51.786;4.662;2024-02-23T07:28:57;3.46;3.31;3.02;2.54;20.26;20.24;20.17;19.79;16.54;0.58
82394;SPS30;72031;51.786;4.662;2024-02-23T07:31:23;3.70;3.54;3.22;2.69;21.50;21.48;21.40;20.99;17.51;0.58
82394;SPS30;72031;51.786;4.662;2024-02-23T07:33:49;3.77;3.59;3.23;2.64;21.12;21.09;21.00;20.53;17.03;0.59
82394;SPS30;72031;51.786;4.662;2024-02-23T07:36:16;3.93;3.71;3.26;2.58;20.59;20.56;20.45;19.88;16.30;0.61
82394;SPS30;72031;51.786;4.662;2024-02-23T07:38:42;3.52;3.34;2.95;2.36;18.83;18.81;18.72;18.23;15.01;0.58
82394;SPS30;72031;51.786;4.662;2024-02-23T07:41:11;3.48;3.32;2.99;2.45;19.60;19.58;19.50;19.08;15.84;0.56
82394;SPS30;72031;51.786;4.662;2024-02-23T07:43:38;3.36;3.21;2.89;2.38;19.00;18.98;18.90;18.49;15.36;0.57
82394;SPS30;72031;51.786;4.662;2024-02-23T07:46:04;3.50;3.33;2.98;2.43;19.39;19.37;19.28;18.84;15.60;0.57
82394;SPS30;72031;51.786;4.662;2024-02-23T07:48:30;4.13;3.96;3.61;3.03;24.19;24.17;24.08;23.63;19.74;0.55
82394;SPS30;72031;51.786;4.662;2024-02-23T07:50:55;3.75;3.60;3.28;2.75;21.97;21.95;21.87;21.46;17.92;0.56
82394;SPS30;72031;51.786;4.662;2024-02-23T07:53:21;3.73;3.57;3.23;2.68;21.42;21.40;21.31;20.88;17.39;0.56
82394;SPS30;72031;51.786;4.662;2024-02-23T07:55:46;4.21;3.98;3.52;2.81;22.47;22.44;22.33;21.75;17.89;0.58
82394;SPS30;72031;51.786;4.662;2024-02-23T07:58:12;4.02;3.83;3.45;2.82;22.57;22.55;22.45;21.96;18.22;0.56
82394;SPS30;72031;51.786;4.662;2024-02-23T08:00:37;3.80;3.63;3.29;2.73;21.78;21.75;21.67;21.23;17.67;0.57
82394;SPS30;72031;51.786;4.662;2024-02-23T08:03:03;3.72;3.54;3.19;2.62;20.94;20.92;20.83;20.38;16.92;0.56
82394;SPS30;72031;51.786;4.662;2024-02-23T08:05:29;3.76;3.59;3.24;2.67;21.31;21.29;21.20;20.75;17.24;0.56
82394;SPS30;72031;51.786;4.662;2024-02-23T08:07:55;4.23;4.02;3.59;2.92;23.32;23.29;23.18;22.64;18.73;0.59
82394;SPS30;72031;51.786;4.662;2024-02-23T08:10:22;3.71;3.54;3.19;2.62;20.91;20.88;20.80;20.34;16.89;0.57
82394;SPS30;72031;51.786;4.662;2024-02-23T08:12:48;3.72;3.58;3.30;2.80;22.34;22.32;22.24;21.87;18.33;0.56
82394;SPS30;72031;51.786;4.662;2024-02-23T08:15:13;3.47;3.35;3.11;2.67;21.37;21.35;21.29;20.97;17.64;0.54
82394;SPS30;72031;51.786;4.662;2024-02-23T08:17:39;3.40;3.29;3.04;2.61;20.83;20.82;20.75;20.43;17.18;0.53
82394;SPS30;72031;51.786;4.662;2024-02-23T08:20:05;3.68;3.55;3.26;2.77;22.11;22.09;22.02;21.65;18.15;0.53
82394;SPS30;72031;51.786;4.662;2024-02-23T08:22:33;3.63;3.47;3.15;2.61;20.86;20.84;20.76;20.34;16.94;0.55
82394;SPS30;72031;51.786;4.662;2024-02-23T08:24:59;4.28;4.06;3.61;2.91;23.29;23.26;23.15;22.58;18.64;0.58
82394;SPS30;72031;51.786;4.662;2024-02-23T08:27:24;3.65;3.47;3.09;2.49;19.92;19.90;19.81;19.33;15.96;0.57
82394;SPS30;72031;51.786;4.662;2024-02-23T08:29:49;3.86;3.69;3.33;2.75;21.96;21.94;21.85;21.39;17.79;0.56
82394;SPS30;72031;51.786;4.662;2024-02-23T08:32:15;3.97;3.80;3.46;2.89;23.06;23.03;22.95;22.50;18.78;0.56
82394;SPS30;72031;51.786;4.662;2024-02-23T08:34:42;3.84;3.69;3.38;2.85;22.81;22.78;22.71;22.30;18.67;0.54
82394;SPS30;72031;51.786;4.662;2024-02-23T08:37:07;3.56;3.45;3.20;2.75;21.99;21.97;21.91;21.58;18.16;0.55
82394;SPS30;72031;51.786;4.662;2024-02-23T08:39:33;3.93;3.80;3.53;3.03;24.21;24.19;24.12;23.75;19.98;0.55
82394;SPS30;72031;51.786;4.662;2024-02-23T08:41:59;3.80;3.69;3.47;3.03;24.20;24.18;24.12;23.81;20.13;0.53
82394;SPS30;72031;51.786;4.662;2024-02-23T08:44:24;3.81;3.70;3.49;3.06;24.41;24.39;24.34;24.04;20.34;0.52
82394;SPS30;72031;51.786;4.662;2024-02-23T08:46:50;4.22;4.09;3.84;3.35;26.77;26.75;26.68;26.34;22.26;0.51
82394;SPS30;72031;51.786;4.662;2024-02-23T08:49:15;4.03;3.93;3.72;3.29;26.27;26.26;26.20;25.91;21.97;0.49
82394;SPS30;72031;51.786;4.662;2024-02-23T08:51:41;4.30;4.21;4.01;3.57;28.52;28.51;28.45;28.16;23.93;0.50
82394;SPS30;72031;51.786;4.662;2024-02-23T08:54:06;3.90;3.79;3.57;3.13;24.99;24.98;24.92;24.61;20.82;0.50
82394;SPS30;72031;51.786;4.662;2024-02-23T08:56:36;3.69;3.60;3.40;2.99;23.91;23.90;23.84;23.56;19.96;0.49
82394;SPS30;72031;51.786;4.662;2024-02-23T08:59:04;3.59;3.49;3.27;2.85;22.74;22.72;22.67;22.37;18.89;0.51
82394;SPS30;72031;51.786;4.662;2024-02-23T09:01:29;3.75;3.62;3.34;2.84;22.72;22.71;22.63;22.27;18.69;0.52
82394;SPS30;72031;51.786;4.662;2024-02-23T09:03:55;3.63;3.50;3.22;2.73;21.84;21.82;21.75;21.38;17.93;0.54
82394;SPS30;72031;51.786;4.662;2024-02-23T09:06:20;3.37;3.24;2.96;2.49;19.91;19.89;19.82;19.46;16.28;0.55
82394;SPS30;72031;51.786;4.662;2024-02-23T09:08:45;3.42;3.29;3.03;2.57;20.52;20.50;20.43;20.08;16.84;0.54